Huvudsida
METAR-TAF:

METAR-TAF

Flygplatser :

Bastia, Frankrike

latitud: 42-33N, longitud: 009-29E, höjd: 8 m

Aktuellt väderrapport

Denna rapport gjordes för 37 minuter sedan, klockan 13:00 UTC
Vind 5 kt från ost/sydost, varierande mellan ost/nordost och syd
Temperatur 16°C
Fuktighet 68%
Tryck 1031 hPa
Sikt 10 km eller mer
Brutna moln på en höjd av 2900 ft

METAR: LFKB 221300Z AUTO 11005KT 060V170 9999 BKN029 16/10 Q1031 NOSIG

Tid: 14:37 (13:37 UTC)

Väderprognos

Denna rapport gjordes för 5 timmar och 37 minuter sedan, klockan 08:00 UTC
Prognos gäller från 22 kl. 09 UTC till 23 kl. 09 UTC
Vind 6 kt från ost
Sikt 10 km eller mer
Inga moln under 1 500 m eller inga cumulonimbus
Temporärt
från 22 kl. 12 UTC till 22 kl. 18 UTC
Brutna moln på en höjd av 1600 ft
Temporärt
från 23 kl. 03 UTC till 23 kl. 09 UTC
Brutna moln på en höjd av 1600 ft

TAF: LFKB 220800Z 2209/2309 10006KT CAVOK TX17/2212Z TN06/2304Z TEMPO 2212/2218 BKN016 TEMPO 2303/2309 BKN016

Aktuella väderrapporter och prognoser från 4000 flygplatser (METAR- och TAF-rapporter).

De tillgängliga stationerna syns som gula och röda prickar på kartan.

För musen över prickarna för att se namnen på stationerna.

Klicka sedan för att få väderrapporter och prognoser.

För att ändra kartan: Klicka på de gröna knapparna med ett svart kors på för att zooma in; den gröna knappen med ett streck på för att zooma ut; eller på de gröna pilarna för angränsande kartor.


METAR-TAF: